Terminal Aerodrome Forecast
Issued by NWS

Home | Current Version | Previous Version | Text Only | Print | Product List | Glossary On
Versions: 1 2 3 4 5 6 7 8 9 10 11 12
000
FTUS45 KVEF 181700
TAFBIH
TAF
KBIH 181728Z 1818/1918 16011KT P6SM FEW100 SCT150 BKN200
     FM182300 17011G20KT P6SM VCTS SCT100CB BKN150
      TEMPO 1823/1902 VRB15G30KT
     FM190300 15008KT P6SM SCT100 BKN150
     FM190800 34009KT P6SM SCT100 SCT150=

USA.gov is the U.S. government's official web portal to all federal, state and local government web resources and services.